createdAt,value
2018-06-23T04:09:57.522Z,25
2018-06-23T04:10:23.031Z,20
2018-06-23T04:10:48.502Z,20
2018-06-23T04:11:13.992Z,20
2018-06-23T04:11:39.458Z,20
2018-06-23T04:12:04.952Z,20
2018-06-23T04:12:30.438Z,20
2018-06-23T04:12:56.031Z,20
2018-06-23T04:13:21.490Z,20
2018-06-23T04:13:46.979Z,20
2018-06-23T04:15:16.025Z,20
2018-06-23T04:15:41.516Z,15
2018-06-23T04:16:07.016Z,20
2018-06-23T04:16:32.519Z,20
2018-06-23T04:16:58.022Z,20
2018-06-23T04:17:23.499Z,20
2018-06-23T04:17:49.005Z,25
2018-06-23T04:18:14.520Z,25
2018-06-23T04:19:28.324Z,20
2018-06-23T04:19:53.822Z,20
2018-06-23T04:20:19.335Z,20
2018-06-23T04:20:44.806Z,20
2018-06-23T04:21:10.326Z,20
2018-06-23T04:21:35.898Z,20
2018-06-23T04:22:01.409Z,20
2018-06-23T04:22:26.916Z,20
2018-06-23T04:22:52.399Z,20
2018-06-23T04:23:17.898Z,20
2018-06-23T04:23:43.404Z,15
2018-06-23T04:24:08.857Z,15
2018-06-23T04:24:34.362Z,20
2018-06-23T04:24:59.834Z,20
2018-06-23T04:25:25.314Z,20
2018-06-23T04:25:50.803Z,20
2018-06-23T04:26:16.297Z,15
2018-06-23T04:26:41.798Z,15
2018-06-23T04:27:07.265Z,15
2018-06-23T04:27:32.784Z,15
2018-06-23T04:27:58.268Z,15
2018-06-23T04:28:23.747Z,15
2018-06-23T04:28:49.239Z,15
2018-06-23T04:29:57.954Z,15
2018-06-23T04:30:23.454Z,15
2018-06-23T04:30:48.928Z,15
2018-06-23T04:31:14.424Z,20
2018-06-23T04:31:39.928Z,20
2018-06-23T04:32:05.422Z,25
2018-06-23T04:32:31.710Z,25
2018-06-23T04:32:57.147Z,25
2018-06-23T04:33:22.611Z,25
2018-06-23T04:33:48.082Z,25
2018-06-23T04:34:13.588Z,25
2018-06-23T04:34:39.026Z,30
2018-06-23T04:35:04.548Z,35
2018-06-23T04:35:30.008Z,35
2018-06-23T04:35:55.504Z,35
2018-06-23T04:36:20.987Z,40
2018-06-23T04:36:46.480Z,40
2018-06-23T04:37:11.977Z,40
2018-06-23T04:37:37.478Z,45
2018-06-23T04:38:03.034Z,45
2018-06-23T04:38:28.499Z,45
2018-06-23T04:38:53.992Z,40
2018-06-23T04:39:19.492Z,40
2018-06-23T04:39:44.985Z,40
2018-06-23T04:40:10.542Z,40
2018-06-23T04:40:35.965Z,40
2018-06-23T04:41:01.447Z,40
2018-06-23T04:41:26.944Z,40
2018-06-23T04:41:52.414Z,35
2018-06-23T04:42:17.936Z,35
2018-06-23T04:42:43.459Z,35
2018-06-23T04:43:08.959Z,40
2018-06-23T04:43:34.444Z,40
2018-06-23T04:43:59.964Z,45
2018-06-23T04:44:25.460Z,45
2018-06-23T04:44:50.930Z,45
2018-06-23T04:45:16.409Z,50
2018-06-23T04:45:41.905Z,50
2018-06-23T04:46:07.388Z,55
2018-06-23T04:46:32.843Z,55
2018-06-23T04:46:58.627Z,60
2018-06-23T04:47:24.119Z,55
2018-06-23T04:47:49.638Z,55
2018-06-23T04:48:15.123Z,45
2018-06-23T04:48:40.615Z,40
2018-06-23T04:49:06.137Z,35
2018-06-23T04:49:31.646Z,40
2018-06-23T04:49:57.139Z,45
2018-06-23T04:50:22.648Z,50
2018-06-23T04:50:48.406Z,50
2018-06-23T04:51:13.711Z,50
2018-06-23T04:51:39.202Z,50
2018-06-23T04:52:04.702Z,50
2018-06-23T04:52:30.177Z,50
2018-06-23T04:52:55.689Z,50
2018-06-23T04:53:21.222Z,50
2018-06-23T04:53:46.710Z,50
2018-06-23T04:54:12.213Z,50
2018-06-23T04:54:37.722Z,50
2018-06-23T04:55:03.200Z,55
2018-06-23T04:55:28.677Z,60
2018-06-23T04:55:54.192Z,60
2018-06-23T04:56:19.649Z,70
2018-06-23T04:56:45.126Z,80
2018-06-23T04:57:10.613Z,85
2018-06-23T04:57:36.103Z,90
2018-06-23T04:58:01.640Z,90
2018-06-23T04:58:27.152Z,95
2018-06-23T04:58:52.629Z,85
2018-06-23T04:59:18.131Z,80
2018-06-23T04:59:43.653Z,70
2018-06-23T05:00:09.135Z,70
2018-06-23T05:00:34.734Z,60
2018-06-23T05:01:00.206Z,60
2018-06-23T05:01:25.663Z,65
2018-06-23T05:01:51.125Z,70
2018-06-23T05:02:16.599Z,80
2018-06-23T05:02:42.097Z,95
2018-06-23T05:03:07.598Z,95
2018-06-23T05:03:33.077Z,95
2018-06-23T05:03:58.569Z,90
2018-06-23T05:04:24.054Z,85
2018-06-23T05:04:49.612Z,85
2018-06-23T05:05:15.077Z,80
2018-06-23T05:05:40.556Z,80
2018-06-23T05:06:06.063Z,75
2018-06-23T05:06:31.583Z,75
2018-06-23T05:06:57.115Z,70
2018-06-23T05:07:22.635Z,70
2018-06-23T05:07:48.148Z,70
2018-06-23T05:08:13.641Z,65
2018-06-23T05:08:39.127Z,70
2018-06-23T05:09:04.717Z,75
2018-06-23T05:09:30.237Z,70
2018-06-23T05:09:55.722Z,70
2018-06-23T05:10:21.188Z,65
2018-06-23T05:10:46.690Z,60
2018-06-23T05:11:12.166Z,60
2018-06-23T05:11:37.651Z,60
2018-06-23T05:12:03.150Z,60
2018-06-23T05:12:28.767Z,60
2018-06-23T05:12:54.270Z,60
2018-06-23T05:13:19.745Z,60
2018-06-23T05:13:45.228Z,60
2018-06-23T05:14:10.758Z,60
2018-06-23T05:14:36.288Z,60
2018-06-23T05:15:01.778Z,55
2018-06-23T05:15:27.321Z,55
2018-06-23T05:15:52.780Z,55
2018-06-23T05:16:18.289Z,50
2018-06-23T05:16:43.801Z,50
2018-06-23T05:17:09.280Z,50
2018-06-23T05:17:34.792Z,50
2018-06-23T05:18:00.271Z,50
2018-06-23T05:18:25.771Z,50
2018-06-23T05:18:51.262Z,60
2018-06-23T05:19:16.755Z,60
2018-06-23T05:19:42.242Z,55
2018-06-23T05:20:07.773Z,50
2018-06-23T05:20:33.255Z,45
2018-06-23T05:20:58.733Z,45
2018-06-23T05:21:24.192Z,40
2018-06-23T05:21:49.661Z,40
2018-06-23T05:22:15.165Z,35
2018-06-23T05:22:40.640Z,35
2018-06-23T05:23:06.168Z,35
2018-06-23T05:23:31.653Z,40
2018-06-23T05:23:57.127Z,40
2018-06-23T05:24:22.612Z,40
2018-06-23T05:24:48.118Z,40
2018-06-23T05:25:13.648Z,35
2018-06-23T05:25:39.132Z,30
2018-06-23T05:26:04.697Z,30
2018-06-23T05:26:30.143Z,35
2018-06-23T05:26:55.630Z,35
2018-06-23T05:27:21.131Z,35
2018-06-23T05:27:46.628Z,35
2018-06-23T05:28:12.141Z,35
2018-06-23T05:28:37.640Z,40
2018-06-23T05:29:03.131Z,40
2018-06-23T05:29:28.791Z,45
2018-06-23T05:29:54.293Z,45
2018-06-23T05:30:19.802Z,50
2018-06-23T05:30:45.288Z,50
2018-06-23T05:31:10.763Z,60
2018-06-23T05:31:36.287Z,65
2018-06-23T05:32:01.831Z,65
2018-06-23T05:32:27.321Z,65
2018-06-23T05:32:52.849Z,75
2018-06-23T05:33:18.321Z,75
2018-06-23T05:33:43.799Z,75
2018-06-23T05:34:09.262Z,75
2018-06-23T05:34:34.800Z,75
2018-06-23T05:35:00.279Z,75
2018-06-23T05:35:25.750Z,80
2018-06-23T05:35:51.213Z,80
2018-06-23T05:36:16.720Z,80
2018-06-23T05:36:42.203Z,75
2018-06-23T05:37:07.727Z,80
2018-06-23T05:37:33.193Z,85
2018-06-23T05:37:58.680Z,90
2018-06-23T05:38:24.134Z,90
2018-06-23T05:38:49.665Z,85
2018-06-23T05:39:15.199Z,90
2018-06-23T05:39:40.631Z,95
2018-06-23T05:40:06.126Z,90
2018-06-23T05:40:31.600Z,90
2018-06-23T05:40:57.068Z,90
2018-06-23T05:41:22.575Z,90
2018-06-23T05:41:48.056Z,85
2018-06-23T05:42:13.553Z,80
2018-06-23T05:42:39.035Z,80
2018-06-23T05:43:04.514Z,80
2018-06-23T05:43:30.014Z,85
2018-06-23T05:43:55.502Z,80
2018-06-23T05:44:20.970Z,75
2018-06-23T05:44:46.496Z,70
2018-06-23T05:45:11.971Z,60
2018-06-23T05:45:37.445Z,55
2018-06-23T05:46:03.045Z,65
2018-06-23T05:46:28.630Z,70
2018-06-23T05:46:54.138Z,70
2018-06-23T05:47:19.638Z,75
2018-06-23T05:47:45.136Z,80
2018-06-23T05:48:10.845Z,80
2018-06-23T05:48:36.514Z,85
2018-06-23T05:49:02.027Z,90
2018-06-23T05:49:27.492Z,100
2018-06-23T05:49:53.204Z,100
2018-06-23T05:50:18.628Z,130
2018-06-23T05:50:44.127Z,145
2018-06-23T05:51:09.639Z,160
2018-06-23T05:51:35.100Z,165
2018-06-23T05:52:00.581Z,180
2018-06-23T05:53:29.707Z,240
2018-06-23T05:53:55.196Z,240
2018-06-23T05:54:20.694Z,225
2018-06-23T05:54:46.193Z,225
2018-06-23T05:55:11.926Z,235
2018-06-23T05:55:37.411Z,245
2018-06-23T05:56:02.901Z,265
2018-06-23T05:56:28.382Z,280
2018-06-23T05:56:53.992Z,280
2018-06-23T05:57:19.423Z,270
2018-06-23T05:57:44.927Z,270
2018-06-23T05:58:10.448Z,255
2018-06-23T05:58:36.015Z,255
2018-06-23T05:59:01.491Z,255
2018-06-23T05:59:26.997Z,260
2018-06-23T05:59:52.476Z,255
2018-06-23T06:00:17.987Z,250
2018-06-23T06:00:43.505Z,245
2018-06-23T06:01:09.033Z,235
2018-06-23T06:01:34.516Z,250
2018-06-23T06:02:00.035Z,255
2018-06-23T06:02:25.533Z,270
2018-06-23T06:02:51.010Z,260
2018-06-23T06:03:16.475Z,255
2018-06-23T06:03:42.073Z,265
2018-06-23T06:04:07.557Z,275
2018-06-23T06:04:33.055Z,270
2018-06-23T06:04:58.556Z,265
2018-06-23T06:05:24.056Z,260
2018-06-23T06:05:49.566Z,250
2018-06-23T06:06:15.213Z,250
2018-06-23T06:06:40.761Z,250
2018-06-23T06:07:06.311Z,255
2018-06-23T06:07:31.709Z,265
2018-06-23T06:07:57.228Z,270
2018-06-23T06:08:22.755Z,265
2018-06-23T06:08:48.269Z,245
2018-06-23T06:09:13.768Z,205
2018-06-23T06:09:39.256Z,180
2018-06-23T06:10:04.795Z,185
2018-06-23T06:10:30.295Z,165
2018-06-23T06:10:55.813Z,165
2018-06-23T06:11:21.303Z,195
2018-06-23T06:11:46.839Z,225
2018-06-23T06:12:12.301Z,220
2018-06-23T06:12:37.796Z,180
2018-06-23T06:13:03.290Z,165
2018-06-23T06:13:28.748Z,140
2018-06-23T06:13:54.264Z,125
2018-06-23T06:14:19.765Z,140
2018-06-23T06:14:45.285Z,170
2018-06-23T06:15:10.755Z,245
2018-06-23T06:15:36.308Z,280
2018-06-23T06:16:01.815Z,275
2018-06-23T06:16:27.266Z,270
2018-06-23T06:16:52.768Z,260
2018-06-23T06:17:18.286Z,290
2018-06-23T06:17:43.755Z,270
2018-06-23T06:18:09.262Z,300
2018-06-23T06:18:34.801Z,305
2018-06-23T06:19:00.234Z,300
2018-06-23T06:19:25.720Z,305
2018-06-23T06:19:51.330Z,320
2018-06-23T06:20:16.744Z,360
2018-06-23T06:20:42.223Z,390
2018-06-23T06:21:07.764Z,400
2018-06-23T06:21:33.279Z,425
2018-06-23T06:21:58.796Z,440
2018-06-23T06:22:24.283Z,455
2018-06-23T06:22:49.780Z,650
2018-06-23T06:23:15.270Z,715
2018-06-23T06:23:40.767Z,755
2018-06-23T06:24:06.279Z,690
2018-06-23T06:24:31.781Z,660
2018-06-23T06:24:57.275Z,480
2018-06-23T06:25:22.747Z,410
2018-06-23T06:25:48.262Z,290
2018-06-23T06:26:13.762Z,300
2018-06-23T06:26:39.264Z,335
2018-06-23T06:27:04.787Z,730
2018-06-23T06:27:30.302Z,445
2018-06-23T06:27:55.792Z,1030
2018-06-23T06:28:21.269Z,985
2018-06-23T06:28:46.772Z,550
2018-06-23T06:29:12.291Z,475
2018-06-23T06:29:37.764Z,460
2018-06-23T06:30:03.233Z,480
2018-06-23T06:30:28.741Z,1005
2018-06-23T06:30:54.243Z,625
2018-06-23T06:31:19.746Z,440
2018-06-23T06:31:45.255Z,620
2018-06-23T06:32:10.734Z,570
2018-06-23T06:32:36.230Z,410
2018-06-23T06:33:01.720Z,415
2018-06-23T06:33:27.216Z,400
2018-06-23T06:33:52.681Z,395
2018-06-23T06:34:18.168Z,385
2018-06-23T06:34:43.632Z,360
2018-06-23T06:35:09.153Z,345
2018-06-23T06:35:34.664Z,345
2018-06-23T06:36:00.144Z,320
2018-06-23T06:36:25.670Z,275
2018-06-23T06:36:51.149Z,260
2018-06-23T06:37:16.660Z,350
2018-06-23T06:37:42.146Z,440
2018-06-23T06:38:07.816Z,445
2018-06-23T06:39:16.519Z,1110
2018-06-23T06:40:25.218Z,350
2018-06-23T06:40:50.721Z,320
2018-06-23T06:41:16.224Z,375
2018-06-23T06:41:41.729Z,290
2018-06-23T06:42:07.265Z,235
2018-06-23T06:42:32.914Z,185
2018-06-23T06:42:59.002Z,160
2018-06-23T06:43:24.343Z,145
2018-06-23T06:43:49.841Z,140
2018-06-23T06:44:15.333Z,150
2018-06-23T06:44:40.893Z,155
2018-06-23T06:45:06.377Z,160
2018-06-23T06:45:31.854Z,175
2018-06-23T06:45:57.371Z,215
2018-06-23T06:46:22.894Z,215
2018-06-23T06:46:48.363Z,215
2018-06-23T06:47:13.923Z,190
2018-06-23T06:47:39.413Z,175
2018-06-23T06:48:04.898Z,165
2018-06-23T06:48:30.390Z,185
2018-06-23T06:48:55.983Z,200
2018-06-23T06:49:21.477Z,215
2018-06-23T06:49:46.973Z,235
2018-06-23T06:50:12.495Z,225
2018-06-23T06:50:37.978Z,235
2018-06-23T06:51:03.483Z,250
2018-06-23T06:51:28.991Z,275
2018-06-23T06:51:54.473Z,290
2018-06-23T06:52:20.038Z,275
2018-06-23T06:52:45.466Z,255
2018-06-23T06:53:10.990Z,215
2018-06-23T06:53:36.425Z,190
2018-06-23T06:54:01.901Z,190
2018-06-23T06:54:27.385Z,200
2018-06-23T06:54:52.889Z,195
2018-06-23T06:55:18.427Z,190
2018-06-23T06:55:43.910Z,185
2018-06-23T06:56:09.388Z,200
2018-06-23T06:56:34.884Z,215
2018-06-23T06:57:00.435Z,210
2018-06-23T06:57:25.887Z,225
2018-06-23T06:57:51.457Z,210
2018-06-23T06:58:16.998Z,165
2018-06-23T06:58:42.500Z,140
2018-06-23T06:59:08.083Z,140
2018-06-23T06:59:33.574Z,145
2018-06-23T06:59:59.204Z,155
2018-06-23T07:00:24.770Z,160
2018-06-23T07:00:50.271Z,155
2018-06-23T07:01:15.746Z,145
2018-06-23T07:01:41.279Z,135
2018-06-23T07:02:06.733Z,120
2018-06-23T07:02:32.245Z,105
2018-06-23T07:02:57.762Z,100
2018-06-23T07:03:23.280Z,95
2018-06-23T07:03:48.767Z,95
2018-06-23T07:04:14.265Z,105
2018-06-23T07:04:39.741Z,105
2018-06-23T07:05:05.242Z,115
2018-06-23T07:05:30.747Z,120
2018-06-23T07:06:39.468Z,160
2018-06-23T07:07:04.940Z,180
2018-06-23T07:07:30.469Z,195
2018-06-23T07:07:55.966Z,210
2018-06-23T07:08:21.506Z,220
2018-06-23T07:08:47.106Z,220
2018-06-23T07:09:12.539Z,240
2018-06-23T07:09:38.005Z,280
2018-06-23T07:10:03.521Z,320
2018-06-23T07:10:29.031Z,330
2018-06-23T07:10:54.631Z,360
2018-06-23T07:11:20.203Z,385
2018-06-23T07:11:45.668Z,425
2018-06-23T07:12:11.141Z,470
2018-06-23T07:12:36.627Z,520
2018-06-23T07:13:02.151Z,680
2018-06-23T07:13:27.647Z,705
2018-06-23T07:13:53.148Z,725
2018-06-23T07:14:18.668Z,740
2018-06-23T07:14:44.170Z,715
2018-06-23T07:15:09.722Z,575
2018-06-23T07:15:35.236Z,485
2018-06-23T07:16:00.740Z,425
2018-06-23T07:16:26.205Z,380
2018-06-23T07:16:51.672Z,335
2018-06-23T07:17:17.176Z,310
2018-06-23T07:17:42.745Z,280
2018-06-23T07:18:08.136Z,265
2018-06-23T07:18:33.628Z,255
2018-06-23T07:18:59.095Z,245
2018-06-23T07:19:24.560Z,230
2018-06-23T07:19:50.182Z,215
2018-06-23T07:20:16.123Z,220
2018-06-23T07:20:41.603Z,240
2018-06-23T07:21:07.106Z,260
2018-06-23T07:21:32.567Z,275
2018-06-23T07:21:58.132Z,275
2018-06-23T07:22:23.610Z,270
2018-06-23T07:23:52.762Z,325
2018-06-23T07:24:18.190Z,360
2018-06-23T07:24:43.690Z,360
2018-06-23T07:25:09.232Z,340
2018-06-23T07:25:34.716Z,340
2018-06-23T07:26:00.182Z,375
2018-06-23T07:26:25.692Z,385
2018-06-23T07:26:51.203Z,395
2018-06-23T07:27:16.628Z,385
2018-06-23T07:27:42.169Z,415
2018-06-23T07:28:07.654Z,390
2018-06-23T07:28:33.192Z,405
2018-06-23T07:28:58.685Z,375
2018-06-23T07:29:24.177Z,380
2018-06-23T07:29:49.690Z,370
2018-06-23T07:30:15.181Z,415
2018-06-23T07:30:40.722Z,380
2018-06-23T07:31:06.137Z,380
2018-06-23T07:31:31.600Z,380
2018-06-23T07:31:57.131Z,335
2018-06-23T07:32:22.603Z,330
2018-06-23T07:32:48.096Z,335
2018-06-23T07:33:13.633Z,335
2018-06-23T07:33:39.105Z,330
2018-06-23T07:34:04.594Z,305
2018-06-23T07:34:30.246Z,315
2018-06-23T07:34:55.738Z,340
2018-06-23T07:35:21.141Z,365
2018-06-23T07:35:46.581Z,395
2018-06-23T07:36:12.158Z,400
2018-06-23T07:36:37.625Z,400
2018-06-23T07:37:03.164Z,410
2018-06-23T07:37:28.650Z,395
2018-06-23T07:37:54.154Z,415
2018-06-23T07:38:19.619Z,400
2018-06-23T07:38:45.192Z,380
2018-06-23T07:39:10.670Z,380
2018-06-23T07:39:36.182Z,335
2018-06-23T07:40:01.805Z,320
2018-06-23T07:40:27.165Z,330
2018-06-23T07:40:52.663Z,360
2018-06-23T07:41:18.154Z,425
2018-06-23T07:41:43.697Z,375
2018-06-23T07:42:09.200Z,400
2018-06-23T07:42:34.724Z,475
2018-06-23T07:43:00.199Z,590
2018-06-23T07:43:25.730Z,1115
2018-06-23T07:43:51.214Z,1265
2018-06-23T07:44:16.719Z,1550
2018-06-23T07:44:42.274Z,1460
2018-06-23T07:45:07.793Z,1740
2018-06-23T07:45:33.248Z,1840
2018-06-23T07:45:58.768Z,1915
2018-06-23T07:47:07.610Z,2155
2018-06-23T07:47:33.119Z,2020
2018-06-23T07:47:58.629Z,1785
2018-06-23T07:48:24.145Z,665
2018-06-23T07:48:49.583Z,385
2018-06-23T07:49:15.089Z,340
2018-06-23T07:49:40.586Z,325
2018-06-23T07:50:06.082Z,340
2018-06-23T07:50:31.546Z,385
2018-06-23T07:50:57.063Z,435
2018-06-23T07:51:22.572Z,425
2018-06-23T07:51:48.081Z,430
2018-06-23T07:52:13.611Z,470
2018-06-23T07:52:39.108Z,460
2018-06-23T07:53:04.560Z,365
2018-06-23T07:53:30.054Z,310
2018-06-23T07:53:55.542Z,300
2018-06-23T07:54:21.019Z,290
2018-06-23T07:54:46.473Z,255
2018-06-23T07:55:11.996Z,245
2018-06-23T07:55:37.533Z,270
2018-06-23T07:56:03.290Z,305
2018-06-23T07:56:28.807Z,365
2018-06-23T07:56:54.351Z,380
2018-06-23T07:57:19.874Z,385
2018-06-23T07:57:45.367Z,400
2018-06-23T07:58:10.906Z,435
2018-06-23T07:58:36.395Z,425
2018-06-23T07:59:01.903Z,400
2018-06-23T07:59:27.497Z,865
2018-06-23T07:59:52.996Z,405
2018-06-23T08:00:18.546Z,335
2018-06-23T08:00:44.089Z,340
2018-06-23T08:01:09.589Z,340
2018-06-23T08:01:35.127Z,355
2018-06-23T08:02:00.573Z,370
2018-06-23T08:02:26.072Z,335
2018-06-23T08:02:51.582Z,420
2018-06-23T08:03:17.114Z,325
2018-06-23T08:03:42.653Z,330
2018-06-23T08:05:01.590Z,425
2018-06-23T08:05:27.078Z,445
2018-06-23T08:05:52.553Z,1885
2018-06-23T08:07:01.254Z,600
2018-06-23T08:07:26.764Z,1200
2018-06-23T08:07:52.239Z,1230
2018-06-23T08:08:17.768Z,520
2018-06-23T08:08:43.278Z,440
2018-06-23T08:09:08.766Z,575
2018-06-23T08:09:34.285Z,1790
2018-06-23T08:09:59.763Z,380
2018-06-23T08:10:25.253Z,335
2018-06-23T08:10:50.747Z,310
2018-06-23T08:11:16.259Z,280
2018-06-23T08:11:41.817Z,1555
2018-06-23T08:12:07.257Z,240
2018-06-23T08:12:32.903Z,215
2018-06-23T08:12:58.355Z,185
2018-06-23T08:13:23.859Z,175
2018-06-23T08:13:49.375Z,195
2018-06-23T08:14:14.924Z,1680
2018-06-23T08:15:38.942Z,640
2018-06-23T08:16:04.456Z,445
2018-06-23T08:16:29.938Z,430
2018-06-23T08:16:55.482Z,495
2018-06-23T08:17:20.927Z,495
2018-06-23T08:17:46.414Z,510
2018-06-23T08:18:11.868Z,535
2018-06-23T08:18:37.424Z,555
2018-06-23T08:19:02.886Z,550
2018-06-23T08:19:28.366Z,540
2018-06-23T08:19:53.860Z,550
2018-06-23T08:20:19.480Z,520
2018-06-23T08:20:45.053Z,540
2018-06-23T08:21:10.571Z,570
2018-06-23T08:21:36.276Z,520
2018-06-23T08:22:01.512Z,380
2018-06-23T08:22:27.036Z,460
2018-06-23T08:22:52.557Z,440
2018-06-23T08:24:01.272Z,445
2018-06-23T08:24:26.759Z,480
2018-06-23T08:24:52.287Z,395
2018-06-23T08:25:17.754Z,480
2018-06-23T08:25:43.245Z,535
2018-06-23T08:26:08.705Z,560
2018-06-23T08:26:34.370Z,595
2018-06-23T08:26:59.744Z,595
2018-06-23T08:27:25.353Z,605
2018-06-23T08:27:50.821Z,590
2018-06-23T08:28:16.345Z,605
2018-06-23T08:28:41.831Z,540
2018-06-23T08:29:07.330Z,545
2018-06-23T08:29:32.921Z,490
2018-06-23T08:29:58.415Z,370
2018-06-23T08:30:23.929Z,345
2018-06-23T08:30:49.416Z,345
2018-06-23T08:31:14.911Z,355
2018-06-23T08:31:40.389Z,430
2018-06-23T08:32:05.908Z,365
2018-06-23T08:32:31.405Z,410
2018-06-23T08:32:56.921Z,445
2018-06-23T08:33:22.417Z,410
2018-06-23T08:33:47.867Z,465
2018-06-23T08:34:13.370Z,415
2018-06-23T08:34:38.883Z,425
2018-06-23T08:35:04.364Z,450
2018-06-23T08:35:29.879Z,470
2018-06-23T08:36:58.990Z,450
2018-06-23T08:37:24.493Z,445
2018-06-23T08:37:49.999Z,455
2018-06-23T08:38:15.477Z,445
2018-06-23T08:38:40.976Z,450
2018-06-23T08:39:06.490Z,475
2018-06-23T08:39:31.982Z,490
2018-06-23T08:39:57.461Z,505
2018-06-23T08:40:22.922Z,510
2018-06-23T08:40:48.399Z,535
2018-06-23T08:41:13.908Z,550
2018-06-23T08:41:39.415Z,525
2018-06-23T08:42:04.923Z,540
2018-06-23T08:42:30.454Z,530
2018-06-23T08:42:55.963Z,545
2018-06-23T08:43:21.426Z,530
2018-06-23T08:43:46.947Z,500
2018-06-23T08:44:12.440Z,445
2018-06-23T08:44:37.945Z,390
2018-06-23T08:45:03.442Z,355
2018-06-23T08:45:28.929Z,340
2018-06-23T08:45:54.403Z,315
2018-06-23T08:46:19.990Z,305
2018-06-23T08:46:45.484Z,295
2018-06-23T08:47:10.985Z,285
2018-06-23T08:47:36.540Z,295
2018-06-23T08:48:02.039Z,310
2018-06-23T08:48:27.544Z,345
2018-06-23T08:48:53.024Z,380
2018-06-23T08:49:18.494Z,375
2018-06-23T08:49:43.988Z,365
2018-06-23T08:50:09.509Z,390
2018-06-23T08:50:35.012Z,420
2018-06-23T08:51:00.517Z,435
2018-06-23T08:51:26.008Z,445
2018-06-23T08:51:51.533Z,445
2018-06-23T08:52:17.023Z,425
2018-06-23T08:52:42.501Z,425
2018-06-23T08:53:07.967Z,445
2018-06-23T08:53:33.505Z,420
2018-06-23T08:53:59.011Z,445
2018-06-23T08:54:24.495Z,450
2018-06-23T08:54:50.017Z,470
2018-06-23T08:55:15.514Z,480
2018-06-23T08:55:41.124Z,485
2018-06-23T08:56:06.677Z,510
2018-06-23T08:56:32.278Z,535
2018-06-23T08:56:57.897Z,565
2018-06-23T08:57:23.392Z,590
2018-06-23T08:57:48.931Z,590
2018-06-23T08:58:14.443Z,570
2018-06-23T08:58:39.923Z,565
2018-06-23T08:59:05.437Z,580
2018-06-23T08:59:30.900Z,520
2018-06-23T08:59:56.378Z,445
2018-06-23T09:00:21.898Z,430
2018-06-23T09:00:47.526Z,355
2018-06-23T09:01:13.084Z,345
2018-06-23T09:01:38.603Z,355
2018-06-23T09:02:04.062Z,370
2018-06-23T09:02:29.684Z,395
2018-06-23T09:02:55.151Z,390
2018-06-23T09:03:20.660Z,385
2018-06-23T09:03:46.148Z,365
2018-06-23T09:04:11.669Z,335
2018-06-23T09:04:37.223Z,310
2018-06-23T09:05:02.707Z,310
2018-06-23T09:05:28.181Z,310
2018-06-23T09:05:53.701Z,335
2018-06-23T09:06:19.199Z,385
2018-06-23T09:06:44.655Z,390
2018-06-23T09:07:10.147Z,345
2018-06-23T09:07:35.677Z,355
2018-06-23T09:08:01.152Z,330
2018-06-23T09:08:26.673Z,340
2018-06-23T09:08:52.942Z,345
2018-06-23T09:09:18.575Z,340
2018-06-23T09:09:44.477Z,320
2018-06-23T09:10:09.913Z,300
2018-06-23T09:10:35.474Z,340
2018-06-23T09:11:00.929Z,360
2018-06-23T09:11:26.738Z,380
2018-06-23T09:11:51.950Z,410
2018-06-23T09:12:17.465Z,430
2018-06-23T09:12:43.026Z,465
2018-06-23T09:13:08.482Z,500
2018-06-23T09:13:33.982Z,530
2018-06-23T09:13:59.400Z,540
2018-06-23T09:14:25.220Z,530
2018-06-23T09:14:50.478Z,475
2018-06-23T09:15:15.904Z,445
2018-06-23T09:15:41.401Z,435
2018-06-23T09:16:06.932Z,435
2018-06-23T09:16:32.466Z,460
2018-06-23T09:16:57.955Z,480
2018-06-23T09:17:23.427Z,495
2018-06-23T09:17:48.957Z,480
2018-06-23T09:18:14.460Z,505
2018-06-23T09:18:39.965Z,520
2018-06-23T09:19:05.492Z,530
2018-06-23T09:19:31.007Z,515
2018-06-23T09:19:56.569Z,520
2018-06-23T09:20:22.109Z,540
2018-06-23T09:20:47.605Z,505
2018-06-23T09:21:13.072Z,475
2018-06-23T09:21:38.579Z,485
2018-06-23T09:22:04.050Z,480
2018-06-23T09:22:29.531Z,490
2018-06-23T09:22:55.037Z,495
2018-06-23T09:23:20.507Z,500
2018-06-23T09:23:45.969Z,500
2018-06-23T09:24:11.477Z,500
2018-06-23T09:24:37.004Z,515
2018-06-23T09:25:02.536Z,530
2018-06-23T09:25:28.089Z,550
2018-06-23T09:25:53.531Z,565
2018-06-23T09:26:19.080Z,590
2018-06-23T09:26:44.557Z,610
2018-06-23T09:27:10.083Z,620
2018-06-23T09:27:35.573Z,620
2018-06-23T09:28:01.058Z,610
2018-06-23T09:28:26.607Z,570
2018-06-23T09:28:52.088Z,510
2018-06-23T09:29:17.610Z,445
2018-06-23T09:29:43.085Z,400
2018-06-23T09:30:08.604Z,355
2018-06-23T09:30:34.062Z,325
2018-06-23T09:30:59.565Z,295
2018-06-23T09:31:25.056Z,275
2018-06-23T09:31:50.581Z,255
2018-06-23T09:32:16.149Z,255
2018-06-23T09:32:41.653Z,260
2018-06-23T09:33:07.160Z,270
2018-06-23T09:33:32.685Z,280
2018-06-23T09:33:58.163Z,285
2018-06-23T09:34:23.652Z,290
2018-06-23T09:34:49.134Z,285
2018-06-23T09:35:14.678Z,295
2018-06-23T09:35:40.186Z,320
2018-06-23T09:36:05.631Z,350
2018-06-23T09:36:31.155Z,395
2018-06-23T09:36:56.683Z,450
2018-06-23T09:37:22.186Z,490
2018-06-23T09:37:47.639Z,515
2018-06-23T09:38:13.140Z,520
2018-06-23T09:38:38.645Z,520
2018-06-23T09:39:04.144Z,520
2018-06-23T09:39:29.626Z,495
2018-06-23T09:39:55.116Z,465
2018-06-23T09:40:20.594Z,460
2018-06-23T09:40:46.087Z,485
2018-06-23T09:41:11.576Z,495
2018-06-23T09:41:37.066Z,495
2018-06-23T09:42:02.702Z,445
2018-06-23T09:42:28.425Z,375
2018-06-23T09:42:53.914Z,340
2018-06-23T09:43:19.380Z,310
2018-06-23T09:43:44.946Z,280
2018-06-23T09:44:10.470Z,255
2018-06-23T09:44:35.972Z,240
2018-06-23T09:45:01.523Z,240
2018-06-23T09:46:25.541Z,260
2018-06-23T09:46:51.039Z,280
2018-06-23T09:47:16.529Z,305
2018-06-23T09:47:42.035Z,335
2018-06-23T09:48:07.530Z,360
2018-06-23T09:48:33.033Z,375
2018-06-23T09:48:58.510Z,400
2018-06-23T09:49:24.023Z,430
2018-06-23T09:49:49.506Z,465
2018-06-23T09:50:14.973Z,495
2018-06-23T09:50:40.455Z,515
2018-06-23T09:51:05.976Z,535
2018-06-23T09:51:31.462Z,550
2018-06-23T09:51:56.977Z,555
2018-06-23T09:52:22.451Z,560
2018-06-23T09:52:47.939Z,550
2018-06-23T09:53:13.457Z,535
2018-06-23T09:53:38.942Z,520
2018-06-23T09:54:04.443Z,490
2018-06-23T09:54:29.918Z,470
2018-06-23T09:54:55.451Z,450
2018-06-23T09:55:20.917Z,430
2018-06-23T09:55:46.457Z,415
2018-06-23T09:56:11.947Z,405
2018-06-23T09:56:37.409Z,410
2018-06-23T09:57:02.976Z,420
2018-06-23T09:57:28.422Z,430
2018-06-23T09:57:53.903Z,425
2018-06-23T09:58:19.328Z,415
2018-06-23T09:58:44.722Z,405
2018-06-23T09:59:10.245Z,395
2018-06-23T09:59:35.769Z,395
2018-06-23T10:00:01.495Z,400
2018-06-23T10:00:26.873Z,405
2018-06-23T10:00:52.421Z,415
2018-06-23T10:01:17.844Z,430
2018-06-23T10:01:43.403Z,435
2018-06-23T10:02:08.896Z,435
2018-06-23T10:02:34.381Z,430
2018-06-23T10:02:59.904Z,420
2018-06-23T10:03:25.433Z,425
2018-06-23T10:03:50.891Z,430
2018-06-23T10:04:16.363Z,420
2018-06-23T10:04:41.939Z,410
2018-06-23T10:05:07.302Z,390
2018-06-23T10:05:32.791Z,375
2018-06-23T10:05:58.306Z,380
2018-06-23T10:06:23.780Z,410
2018-06-23T10:06:49.215Z,430
2018-06-23T10:07:14.710Z,430
2018-06-23T10:07:40.160Z,435
2018-06-23T10:08:05.690Z,435
2018-06-23T10:08:31.170Z,430
2018-06-23T10:08:56.643Z,420
2018-06-23T10:09:22.081Z,420
2018-06-23T10:09:47.653Z,425
2018-06-23T10:10:13.152Z,440
2018-06-23T10:10:38.599Z,450
2018-06-23T10:11:04.077Z,430
2018-06-23T10:11:29.550Z,420
2018-06-23T10:11:55.054Z,440
2018-06-23T10:12:20.536Z,435
2018-06-23T10:12:46.052Z,420
2018-06-23T10:13:11.469Z,410
2018-06-23T10:13:36.961Z,370
2018-06-23T10:14:02.443Z,365
2018-06-23T10:14:27.932Z,325
2018-06-23T10:14:53.403Z,315
2018-06-23T10:15:18.900Z,320
2018-06-23T10:15:44.339Z,325
2018-06-23T10:16:09.835Z,365
2018-06-23T10:16:35.324Z,395
2018-06-23T10:17:00.806Z,420